Time;durP1;ratioP1;P1;durP2;ratioP2;P2;SDS_P1;SDS_P2;PMS_P1;PMS_P2;Temp;Humidity;BMP_temperature;BMP_pressure;BME280_temperature;BME280_humidity;BME280_pressure;Samples;Min_cycle;Max_cycle;Signal;HPM_P1;HPM_P2
2023/05/04 18:30:10;;;;;;;6.43;5.68;;;;;;;11.39;74.20;95259.41;5133598;27;20388;-69
2023/05/04 18:32:37;;;;;;;4.32;3.83;;;;;;;11.38;73.92;95263.31;5113507;28;20188;-71
2023/05/04 18:35:11;;;;;;;4.03;3.67;;;;;;;11.38;73.79;95263.31;5095006;28;20196;-71
2023/05/04 18:37:39;;;;;;;4.57;4.18;;;;;;;11.33;73.90;95267.16;5113092;28;20184;-70
2023/05/04 18:40:08;;;;;;;4.72;4.30;;;;;;;11.34;73.91;95267.94;5112694;28;20218;-71
2023/05/04 18:42:38;;;;;;;7.32;4.95;;;;;;;11.35;73.78;95272.31;5095135;28;20203;-73
2023/05/04 18:45:10;;;;;;;5.30;4.90;;;;;;;11.35;73.70;95272.31;5095346;28;20200;-72
2023/05/04 18:47:37;;;;;;;4.90;4.50;;;;;;;11.33;73.78;95272.69;5095215;28;20192;-75
2023/05/04 18:50:08;;;;;;;4.90;4.50;;;;;;;11.33;74.38;95283.72;5094512;28;20226;-70
2023/05/04 18:52:36;;;;;;;8.57;6.32;;;;;;;11.32;74.93;95282.09;5094633;28;20666;-75
2023/05/04 18:55:06;;;;;;;6.90;6.30;;;;;;;11.28;74.86;95286.72;5094621;28;20211;-72
2023/05/04 18:57:33;;;;;;;9.73;8.55;;;;;;;11.22;75.17;95293.66;5095322;28;20608;-76
2023/05/04 19:00:00;;;;;;;9.82;8.80;;;;;;;11.17;75.46;95290.34;5094771;28;20660;-72
2023/05/04 19:02:30;;;;;;;10.48;9.48;;;;;;;11.12;75.68;95296.94;5112307;28;20184;-72
2023/05/04 19:04:58;;;;;;;10.40;9.27;;;;;;;11.11;75.80;95300.03;5112689;28;20242;-75
2023/05/04 19:07:29;;;;;;;11.13;10.00;;;;;;;11.07;75.51;95297.16;5094711;28;20192;-74
2023/05/04 19:09:58;;;;;;;10.15;9.20;;;;;;;11.04;75.91;95297.88;5112441;28;20184;-73
2023/05/04 19:12:26;;;;;;;8.93;8.13;;;;;;;11.01;75.25;95302.13;5112283;28;20214;-73
2023/05/04 19:14:54;;;;;;;9.35;8.55;;;;;;;11.04;75.12;95308.91;5112287;28;20188;-72
2023/05/04 19:17:24;;;;;;;7.72;7.03;;;;;;;11.02;74.97;95316.72;5112320;28;20198;-72
2023/05/04 19:19:58;;;;;;;6.55;6.05;;;;;;;11.01;75.42;95315.13;5094005;28;20216;-72
2023/05/04 19:22:24;;;;;;;6.75;6.10;;;;;;;11.02;75.47;95320.28;5112323;28;20183;-71
2023/05/04 19:24:54;;;;;;;6.78;6.18;;;;;;;11.01;74.87;95320.66;5112360;28;20206;-71
2023/05/04 19:27:23;;;;;;;6.95;6.25;;;;;;;11.00;75.11;95313.50;5094140;28;20200;-69
2023/05/04 19:29:54;;;;;;;7.93;7.20;;;;;;;10.96;75.07;95310.66;5090651;28;20251;-70
2023/05/04 19:32:25;;;;;;;7.55;6.60;;;;;;;10.98;75.04;95313.06;5091632;28;20216;-77
2023/05/04 19:34:58;;;;;;;6.43;5.85;;;;;;;10.98;75.75;95321.34;5091156;28;20192;-72
2023/05/04 19:37:29;;;;;;;7.10;6.57;;;;;;;10.95;75.16;95319.28;5090555;28;20228;-73
2023/05/04 19:39:59;;;;;;;10.18;9.27;;;;;;;10.91;75.17;95323.91;5085495;28;20256;-77
2023/05/04 19:42:27;;;;;;;10.15;9.25;;;;;;;10.82;75.50;95315.72;5079980;28;20214;-76
2023/05/04 19:44:57;;;;;;;10.00;9.10;;;;;;;10.77;75.12;95311.28;5077999;28;20181;-77
2023/05/04 19:47:26;;;;;;;9.23;7.80;;;;;;;10.81;76.04;95327.94;5078051;28;20197;-77
2023/05/04 19:50:00;;;;;;;8.38;7.63;;;;;;;10.84;75.84;95324.47;5065747;28;20217;-73
2023/05/04 19:52:27;;;;;;;8.15;7.38;;;;;;;10.86;75.90;95319.44;5056972;28;20194;-75
2023/05/04 19:54:56;;;;;;;8.35;7.65;;;;;;;10.89;75.88;95324.22;5057621;28;20174;-73
2023/05/04 19:57:24;;;;;;;9.27;8.40;;;;;;;10.88;75.88;95322.63;5057000;28;20197;-71
2023/05/04 19:59:56;;;;;;;10.45;9.55;;;;;;;10.88;75.06;95325.38;5056458;28;20210;-72
2023/05/04 20:02:24;;;;;;;11.80;10.65;;;;;;;10.82;74.76;95327.59;5057299;28;20201;-72
2023/05/04 20:04:51;;;;;;;11.55;10.48;;;;;;;10.87;75.42;95334.81;5057528;28;20193;-73
2023/05/04 20:07:24;;;;;;;10.68;9.65;;;;;;;10.89;74.90;95331.72;5056895;28;20296;-69
2023/05/04 20:09:53;;;;;;;10.68;9.70;;;;;;;10.93;75.45;95322.41;5056145;28;20284;-72
2023/05/04 20:12:21;;;;;;;11.10;10.15;;;;;;;10.97;75.68;95330.78;5056864;28;20217;-68
2023/05/04 20:14:47;;;;;;;11.10;10.10;;;;;;;10.96;75.36;95340.19;5057073;28;20194;-69
2023/05/04 20:17:16;;;;;;;10.88;9.77;;;;;;;10.93;74.92;95333.44;5056884;28;20209;-69
2023/05/04 20:19:44;;;;;;;10.90;9.90;;;;;;;10.92;74.74;95333.78;5056908;28;20225;-72
2023/05/04 20:22:12;;;;;;;9.40;8.50;;;;;;;10.89;74.62;95323.44;5057541;28;20190;-74
2023/05/04 20:24:43;;;;;;;9.27;8.40;;;;;;;10.88;74.51;95332.88;5056432;28;20540;-72
2023/05/04 20:27:13;;;;;;;9.00;8.20;;;;;;;10.84;74.38;95335.53;5057128;28;20236;-69
2023/05/04 20:29:44;;;;;;;8.75;8.00;;;;;;;10.80;74.80;95329.88;5074006;28;20428;-68
2023/05/04 20:32:12;;;;;;;7.53;6.88;;;;;;;10.79;74.18;95338.53;5077202;28;20200;-73
2023/05/04 20:34:41;;;;;;;7.10;6.50;;;;;;;10.83;73.89;95334.72;5076976;28;20193;-73
2023/05/04 20:37:12;;;;;;;7.80;7.00;;;;;;;10.87;73.95;95331.28;5076975;28;20200;-74
2023/05/04 20:39:46;;;;;;;7.72;7.03;;;;;;;10.90;74.05;95331.38;5059218;28;20209;-69
2023/05/04 20:42:17;;;;;;;7.32;6.70;;;;;;;10.87;73.62;95326.56;5059687;28;20196;-69
2023/05/04 20:44:45;;;;;;;6.80;6.30;;;;;;;10.84;73.58;95330.00;5059103;28;20232;-69
2023/05/04 20:47:14;;;;;;;6.90;6.38;;;;;;;10.88;74.48;95327.34;5059288;28;20201;-69
2023/05/04 20:49:42;;;;;;;7.85;7.13;;;;;;;10.89;74.92;95327.00;5058673;28;20185;-69
2023/05/04 20:52:09;;;;;;;8.18;7.47;;;;;;;10.90;73.95;95325.06;5075511;28;20186;-69
2023/05/04 20:54:37;;;;;;;7.75;7.05;;;;;;;10.90;73.08;95331.38;5076751;28;20209;-68
2023/05/04 20:57:10;;;;;;;7.50;6.90;;;;;;;10.90;73.47;95328.63;5058421;28;20204;-68
2023/05/04 20:59:40;;;;;;;7.70;7.00;;;;;;;10.91;72.88;95332.97;5058841;28;20266;-71
2023/05/04 21:02:08;;;;;;;7.63;6.93;;;;;;;10.93;73.31;95336.19;5058594;28;20274;-72
2023/05/04 21:04:37;;;;;;;7.57;6.88;;;;;;;10.94;74.03;95329.53;5076398;28;20196;-73
2023/05/04 21:07:06;;;;;;;7.90;7.20;;;;;;;10.95;74.26;95335.84;5076253;28;20205;-73
2023/05/04 21:09:33;;;;;;;7.82;7.03;;;;;;;10.94;73.81;95337.81;5075926;28;20251;-72
2023/05/04 21:12:01;;;;;;;7.70;7.00;;;;;;;10.92;74.03;95333.78;5058325;28;20548;-74
2023/05/04 21:14:32;;;;;;;7.57;6.97;;;;;;;10.88;73.83;95330.91;5075438;28;20691;-74
2023/05/04 21:17:00;;;;;;;8.02;7.40;;;;;;;10.89;74.07;95328.94;5058836;28;20189;-73
2023/05/04 21:19:28;;;;;;;10.35;7.65;;;;;;;10.88;74.59;95336.44;5076181;28;20205;-73
2023/05/04 21:21:57;;;;;;;8.00;7.20;;;;;;;10.89;75.06;95340.78;5076031;28;20189;-74
2023/05/04 21:24:25;;;;;;;8.00;7.35;;;;;;;10.89;75.13;95337.22;5075991;28;20275;-73
2023/05/04 21:26:52;;;;;;;8.00;7.30;;;;;;;10.85;75.42;95345.41;5075792;28;20202;-74
2023/05/04 21:29:20;;;;;;;11.48;10.23;;;;;;;10.77;75.64;95346.34;5075479;28;20289;-73
2023/05/04 21:31:55;;;;;;;11.80;10.50;;;;;;;10.74;76.22;95352.53;5058084;28;20216;-72
